createdAt,value
2018-03-28T00:00:01.842Z,0
2018-03-28T00:01:02.071Z,0
2018-03-28T00:02:01.544Z,0
2018-03-28T00:03:01.768Z,0
2018-03-28T00:04:01.744Z,0
2018-03-28T00:05:01.467Z,0
2018-03-28T00:06:01.690Z,0
2018-03-28T00:07:01.673Z,0
2018-03-28T00:08:01.662Z,0
2018-03-28T00:09:01.874Z,0
2018-03-28T00:10:01.581Z,0
2018-03-28T00:11:01.562Z,0
2018-03-28T00:12:01.548Z,0
2018-03-28T00:13:01.530Z,0
2018-03-28T00:14:01.485Z,0
2018-03-28T00:15:01.459Z,0
2018-03-28T00:16:01.420Z,0
2018-03-28T00:17:01.649Z,0
2018-03-28T00:18:01.383Z,0
2018-03-28T00:19:01.590Z,0
2018-03-28T00:20:01.557Z,0
2018-03-28T00:21:01.538Z,0
2018-03-28T00:22:01.262Z,0
2018-03-28T00:23:01.240Z,0
2018-03-28T00:24:01.460Z,0
2018-03-28T00:25:01.427Z,0
2018-03-28T00:26:01.154Z,0
2018-03-28T00:27:00.879Z,0
2018-03-28T00:28:01.360Z,0
2018-03-28T00:29:01.073Z,0
2018-03-28T00:30:01.294Z,0
2018-03-28T00:31:01.269Z,0
2018-03-28T00:32:01.013Z,0
2018-03-28T00:33:00.721Z,0
2018-03-28T00:34:01.194Z,0
2018-03-28T00:35:01.166Z,0
2018-03-28T00:36:01.151Z,0
2018-03-28T00:37:01.114Z,0
2018-03-28T00:38:01.084Z,0
2018-03-28T00:39:01.058Z,0
2018-03-28T00:40:00.787Z,0
2018-03-28T00:41:00.752Z,0
2018-03-28T00:42:00.475Z,0
2018-03-28T00:43:00.950Z,0
2018-03-28T00:44:00.923Z,0
2018-03-28T00:45:00.650Z,0
2018-03-28T00:46:00.864Z,0
2018-03-28T00:47:00.595Z,0
2018-03-28T00:48:00.567Z,0
2018-03-28T00:49:00.538Z,0
2018-03-28T00:50:00.760Z,0
2018-03-28T00:51:00.233Z,0
2018-03-28T00:52:00.720Z,0
2018-03-28T00:53:00.681Z,0
2018-03-28T00:54:00.661Z,0
2018-03-28T00:55:00.125Z,0
2018-03-28T00:56:00.355Z,0
2018-03-28T00:57:00.075Z,0
2018-03-28T00:58:00.559Z,0
2018-03-28T00:59:00.265Z,0
2018-03-28T01:00:00.519Z,0
2018-03-28T01:01:00.466Z,0
2018-03-28T01:02:00.196Z,0
2018-03-28T01:03:00.161Z,0
2018-03-28T01:04:00.377Z,0
2018-03-28T01:05:00.421Z,0
2018-03-28T01:05:59.887Z,0
2018-03-28T01:07:00.058Z,0
2018-03-28T01:08:00.278Z,0
2018-03-28T01:08:59.754Z,0
2018-03-28T01:09:59.975Z,0
2018-03-28T01:10:59.950Z,0
2018-03-28T01:11:59.919Z,0
2018-03-28T01:13:00.157Z,0
2018-03-28T01:13:59.872Z,0
2018-03-28T01:15:00.090Z,0
2018-03-28T01:16:00.072Z,0
2018-03-28T01:16:59.548Z,0
2018-03-28T01:17:59.771Z,0
2018-03-28T01:18:59.731Z,0
2018-03-28T01:19:59.965Z,0
2018-03-28T01:20:59.684Z,0
2018-03-28T01:21:59.406Z,0
2018-03-28T01:22:59.878Z,0
2018-03-28T01:23:59.852Z,0
2018-03-28T01:24:59.833Z,0
2018-03-28T01:25:59.296Z,0
2018-03-28T01:26:59.272Z,0
2018-03-28T01:27:59.249Z,0
2018-03-28T01:28:59.570Z,0
2018-03-28T01:29:59.439Z,0
2018-03-28T01:30:59.682Z,0
2018-03-28T01:31:59.638Z,0
2018-03-28T01:32:59.647Z,0
2018-03-28T01:33:59.338Z,0
2018-03-28T01:34:59.306Z,0
2018-03-28T01:35:59.282Z,0
2018-03-28T01:36:59.508Z,0
2018-03-28T01:37:59.230Z,0
2018-03-28T01:38:59.461Z,0
2018-03-28T01:39:59.422Z,0
2018-03-28T01:40:59.149Z,0
2018-03-28T01:41:59.366Z,0
2018-03-28T01:42:59.361Z,0
2018-03-28T01:43:59.317Z,0
2018-03-28T01:44:59.299Z,0
2018-03-28T01:45:59.013Z,0
2018-03-28T01:46:59.233Z,0
2018-03-28T01:47:59.206Z,0
2018-03-28T01:48:59.203Z,0
2018-03-28T01:49:59.172Z,0
2018-03-28T01:50:58.875Z,0
2018-03-28T01:51:58.865Z,0
2018-03-28T01:52:59.077Z,0
2018-03-28T01:53:58.796Z,0
2018-03-28T01:54:59.022Z,0
2018-03-28T01:55:58.992Z,0
2018-03-28T01:56:58.471Z,0
2018-03-28T01:57:58.939Z,0
2018-03-28T01:58:58.914Z,0
2018-03-28T01:59:58.907Z,0
2018-03-28T02:00:58.869Z,0
2018-03-28T02:01:58.837Z,0
2018-03-28T02:02:58.817Z,0
2018-03-28T02:03:58.777Z,0
2018-03-28T02:04:58.771Z,0
2018-03-28T02:05:58.786Z,0
2018-03-28T02:06:58.857Z,0
2018-03-28T02:07:58.684Z,0
2018-03-28T02:08:58.708Z,0
2018-03-28T02:09:58.623Z,0
2018-03-28T02:10:58.594Z,0
2018-03-28T02:11:58.077Z,0
2018-03-28T02:12:58.540Z,0
2018-03-28T02:13:58.522Z,0
2018-03-28T02:14:58.243Z,0
2018-03-28T02:15:58.483Z,0
2018-03-28T02:16:58.439Z,0
2018-03-28T02:17:58.411Z,0
2018-03-28T02:18:58.384Z,0
2018-03-28T02:19:58.348Z,0
2018-03-28T02:20:58.082Z,0
2018-03-28T02:21:58.063Z,0
2018-03-28T02:22:58.030Z,0
2018-03-28T02:23:58.262Z,0
2018-03-28T02:24:57.986Z,0
2018-03-28T02:25:58.204Z,0
2018-03-28T02:26:57.935Z,0
2018-03-28T02:27:58.145Z,0
2018-03-28T02:28:57.873Z,0
2018-03-28T02:29:57.852Z,0
2018-03-28T02:30:58.076Z,0
2018-03-28T02:31:57.808Z,0
2018-03-28T02:32:58.041Z,0
2018-03-28T02:33:57.739Z,0
2018-03-28T02:34:57.725Z,0
2018-03-28T02:35:57.941Z,0
2018-03-28T02:36:57.653Z,0
2018-03-28T02:37:57.890Z,0
2018-03-28T02:38:57.853Z,0
2018-03-28T02:39:57.835Z,0
2018-03-28T02:40:57.818Z,0
2018-03-28T02:41:57.793Z,0
2018-03-28T02:42:57.503Z,0
2018-03-28T02:43:57.477Z,0
2018-03-28T02:44:57.459Z,0
2018-03-28T02:45:57.687Z,0
2018-03-28T02:46:57.145Z,0
2018-03-28T02:47:57.613Z,0
2018-03-28T02:48:57.127Z,0
2018-03-28T02:49:57.577Z,0
2018-03-28T02:50:57.542Z,0
2018-03-28T02:51:57.589Z,0
2018-03-28T02:52:57.241Z,0
2018-03-28T02:53:57.464Z,0
2018-03-28T02:54:57.194Z,0
2018-03-28T02:55:57.171Z,0
2018-03-28T02:56:57.376Z,0
2018-03-28T02:57:57.353Z,0
2018-03-28T02:58:57.079Z,0
2018-03-28T02:59:57.065Z,0
2018-03-28T03:00:57.271Z,0
2018-03-28T03:01:57.251Z,0
2018-03-28T03:02:57.221Z,0
2018-03-28T03:03:56.942Z,0
2018-03-28T03:04:57.176Z,0
2018-03-28T03:05:56.647Z,0
2018-03-28T03:06:56.863Z,0
2018-03-28T03:07:57.091Z,0
2018-03-28T03:08:56.563Z,0
2018-03-28T03:09:56.803Z,0
2018-03-28T03:10:56.752Z,0
2018-03-28T03:11:56.726Z,0
2018-03-28T03:12:56.455Z,0
2018-03-28T03:13:56.924Z,0
2018-03-28T03:14:56.653Z,0
2018-03-28T03:15:56.980Z,0
2018-03-28T03:16:56.591Z,0
2018-03-28T03:17:56.814Z,0
2018-03-28T03:18:56.781Z,0
2018-03-28T03:19:56.756Z,0
2018-03-28T03:20:56.483Z,0
2018-03-28T03:21:56.466Z,0
2018-03-28T03:22:56.689Z,0
2018-03-28T03:23:56.656Z,0
2018-03-28T03:24:56.383Z,0
2018-03-28T03:25:56.357Z,0
2018-03-28T03:26:55.831Z,0
2018-03-28T03:27:56.552Z,0
2018-03-28T03:28:56.281Z,0
2018-03-28T03:29:56.522Z,0
2018-03-28T03:30:56.255Z,0
2018-03-28T03:31:56.455Z,0
2018-03-28T03:32:56.412Z,0
2018-03-28T03:33:56.139Z,0
2018-03-28T03:34:56.369Z,0
2018-03-28T03:35:55.848Z,0
2018-03-28T03:36:55.626Z,0
2018-03-28T03:37:55.786Z,0
2018-03-28T03:38:56.259Z,0
2018-03-28T03:39:55.989Z,0
2018-03-28T03:40:56.232Z,0
2018-03-28T03:41:56.175Z,0
2018-03-28T03:42:56.151Z,0
2018-03-28T03:43:56.127Z,0
2018-03-28T03:44:55.880Z,0
2018-03-28T03:45:55.581Z,0
2018-03-28T03:46:56.052Z,0
2018-03-28T03:47:56.038Z,0
2018-03-28T03:48:55.794Z,0
2018-03-28T03:49:55.956Z,0
2018-03-28T03:50:55.700Z,0
2018-03-28T03:51:55.912Z,0
2018-03-28T03:52:55.385Z,0
2018-03-28T03:53:55.607Z,0
2018-03-28T03:54:55.847Z,0
2018-03-28T03:55:55.564Z,0
2018-03-28T03:56:55.286Z,0
2018-03-28T03:57:55.752Z,0
2018-03-28T03:58:55.592Z,0
2018-03-28T03:59:55.200Z,0
2018-03-28T04:00:55.674Z,0
2018-03-28T04:01:55.397Z,0
2018-03-28T04:02:55.125Z,0
2018-03-28T04:03:55.353Z,0
2018-03-28T04:04:55.328Z,0
2018-03-28T04:05:55.547Z,0
2018-03-28T04:06:55.269Z,0
2018-03-28T04:07:54.747Z,0
2018-03-28T04:08:55.461Z,0
2018-03-28T04:09:55.449Z,0
2018-03-28T04:10:55.422Z,0
2018-03-28T04:11:54.889Z,0
2018-03-28T04:12:55.356Z,0
2018-03-28T04:13:55.077Z,0
2018-03-28T04:14:55.054Z,0
2018-03-28T04:15:55.023Z,0
2018-03-28T04:16:54.760Z,0
2018-03-28T04:17:54.766Z,0
2018-03-28T04:18:54.948Z,0
2018-03-28T04:19:54.920Z,0
2018-03-28T04:20:54.641Z,0
2018-03-28T04:21:54.870Z,0
2018-03-28T04:22:54.594Z,0
2018-03-28T04:23:54.815Z,0
2018-03-28T04:24:54.787Z,0
2018-03-28T04:25:55.005Z,0
2018-03-28T04:26:54.985Z,0
2018-03-28T04:27:54.706Z,0
2018-03-28T04:28:54.434Z,0
2018-03-28T04:29:54.899Z,0
2018-03-28T04:30:54.879Z,0
2018-03-28T04:31:54.357Z,0
2018-03-28T04:32:54.827Z,0
2018-03-28T04:33:54.546Z,0
2018-03-28T04:34:54.522Z,0
2018-03-28T04:35:54.490Z,0
2018-03-28T04:36:54.723Z,0
2018-03-28T04:37:54.688Z,0
2018-03-28T04:38:54.663Z,0
2018-03-28T04:39:54.652Z,0
2018-03-28T04:40:54.617Z,0
2018-03-28T04:41:53.835Z,0
2018-03-28T04:42:54.558Z,0
2018-03-28T04:43:54.558Z,0
2018-03-28T04:44:54.502Z,0
2018-03-28T04:45:54.476Z,0
2018-03-28T04:46:54.446Z,0
2018-03-28T04:47:54.430Z,0
2018-03-28T04:48:54.409Z,0
2018-03-28T04:49:54.126Z,0
2018-03-28T04:50:54.348Z,0
2018-03-28T04:51:54.321Z,0
2018-03-28T04:52:54.047Z,0
2018-03-28T04:53:54.018Z,0
2018-03-28T04:54:53.993Z,0
2018-03-28T04:55:54.396Z,0
2018-03-28T04:56:53.945Z,0
2018-03-28T04:57:54.269Z,0
2018-03-28T04:58:54.135Z,0
2018-03-28T04:59:53.860Z,0
2018-03-28T05:00:53.833Z,0
2018-03-28T05:01:54.056Z,0
2018-03-28T05:02:54.042Z,0
2018-03-28T05:03:54.012Z,0
2018-03-28T05:04:53.978Z,0
2018-03-28T05:05:53.953Z,0
2018-03-28T05:06:53.682Z,0
2018-03-28T05:07:53.400Z,0
2018-03-28T05:08:53.370Z,0
2018-03-28T05:09:53.850Z,0
2018-03-28T05:10:53.577Z,0
2018-03-28T05:11:53.796Z,0
2018-03-28T05:12:53.515Z,0
2018-03-28T05:13:53.248Z,0
2018-03-28T05:14:53.473Z,0
2018-03-28T05:15:54.097Z,0
2018-03-28T05:16:53.660Z,0
2018-03-28T05:17:53.386Z,0
2018-03-28T05:18:53.357Z,0
2018-03-28T05:19:53.369Z,0
2018-03-28T05:20:54.493Z,0
2018-03-28T05:21:53.275Z,0
2018-03-28T05:22:53.578Z,0
2018-03-28T05:23:53.479Z,0
2018-03-28T05:24:53.194Z,0
2018-03-28T05:25:53.434Z,0
2018-03-28T05:26:53.151Z,5
2018-03-28T05:27:53.366Z,5
2018-03-28T05:28:53.094Z,5
2018-03-28T05:29:53.063Z,5
2018-03-28T05:30:53.044Z,10
2018-03-28T05:31:52.766Z,10
2018-03-28T05:32:52.989Z,10
2018-03-28T05:33:53.214Z,10
2018-03-28T05:34:52.936Z,10
2018-03-28T05:35:52.665Z,10
2018-03-28T05:36:53.132Z,10
2018-03-28T05:37:53.100Z,10
2018-03-28T05:38:53.120Z,10
2018-03-28T05:39:53.061Z,15
2018-03-28T05:40:52.534Z,15
2018-03-28T05:41:52.752Z,15
2018-03-28T05:42:53.051Z,20
2018-03-28T05:43:52.945Z,20
2018-03-28T05:44:52.930Z,25
2018-03-28T05:45:52.406Z,25
2018-03-28T05:46:52.624Z,25
2018-03-28T05:47:52.846Z,25
2018-03-28T05:48:52.812Z,25
2018-03-28T05:49:52.892Z,30
2018-03-28T05:50:52.768Z,30
2018-03-28T05:51:52.244Z,30
2018-03-28T05:52:52.208Z,30
2018-03-28T05:53:52.434Z,30
2018-03-28T05:54:52.658Z,35
2018-03-28T05:55:52.526Z,35
2018-03-28T05:56:52.597Z,35
2018-03-28T05:57:52.589Z,30
2018-03-28T05:58:52.559Z,30
2018-03-28T05:59:52.275Z,30
2018-03-28T06:00:52.504Z,30
2018-03-28T06:01:52.480Z,30
2018-03-28T06:02:52.448Z,30
2018-03-28T06:03:52.419Z,30
2018-03-28T06:04:52.385Z,25
2018-03-28T06:05:52.378Z,30
2018-03-28T06:06:52.091Z,25
2018-03-28T06:07:52.147Z,25
2018-03-28T06:08:52.286Z,25
2018-03-28T06:09:51.764Z,25
2018-03-28T06:10:51.997Z,25
2018-03-28T06:11:52.206Z,25
2018-03-28T06:12:52.187Z,25
2018-03-28T06:13:52.151Z,25
2018-03-28T06:14:51.878Z,25
2018-03-28T06:15:52.110Z,30
2018-03-28T06:16:51.822Z,30
2018-03-28T06:17:52.063Z,30
2018-03-28T06:18:52.040Z,30
2018-03-28T06:19:51.991Z,35
2018-03-28T06:20:51.967Z,35
2018-03-28T06:21:51.948Z,40
2018-03-28T06:22:51.928Z,40
2018-03-28T06:23:51.889Z,40
2018-03-28T06:24:51.867Z,40
2018-03-28T06:25:51.854Z,35
2018-03-28T06:26:51.813Z,35
2018-03-28T06:27:51.551Z,35
2018-03-28T06:28:51.763Z,35
2018-03-28T06:29:51.486Z,35
2018-03-28T06:30:51.543Z,40
2018-03-28T06:31:51.836Z,40
2018-03-28T06:32:51.159Z,50
2018-03-28T06:33:52.607Z,45
2018-03-28T06:34:52.879Z,45
2018-03-28T06:35:51.336Z,40
2018-03-28T06:36:51.602Z,50
2018-03-28T06:37:51.524Z,50
2018-03-28T06:38:51.508Z,50
2018-03-28T06:39:51.453Z,50
2018-03-28T06:40:51.441Z,50
2018-03-28T06:41:51.420Z,55
2018-03-28T06:42:52.050Z,55
2018-03-28T06:43:51.938Z,60
2018-03-28T06:44:52.733Z,65
2018-03-28T06:45:52.129Z,70
2018-03-28T06:46:51.288Z,70
2018-03-28T06:47:51.254Z,65
2018-03-28T06:48:51.812Z,55
2018-03-28T06:49:51.549Z,50
2018-03-28T06:50:52.329Z,45
2018-03-28T06:51:50.850Z,50
2018-03-28T06:52:53.137Z,85
2018-03-28T06:53:53.453Z,140
2018-03-28T06:54:51.896Z,135
2018-03-28T06:55:51.477Z,170
2018-03-28T06:56:51.022Z,165
2018-03-28T06:57:50.973Z,155
2018-03-28T06:58:50.718Z,150
2018-03-28T06:59:51.154Z,145
2018-03-28T07:00:50.415Z,145
2018-03-28T07:01:50.658Z,145
2018-03-28T07:02:50.865Z,140
2018-03-28T07:03:50.935Z,170
2018-03-28T07:04:50.558Z,205
2018-03-28T07:05:51.344Z,220
2018-03-28T07:06:52.032Z,210
2018-03-28T07:07:50.250Z,195
2018-03-28T07:08:50.458Z,185
2018-03-28T07:09:50.698Z,200
2018-03-28T07:10:50.416Z,230
2018-03-28T07:11:50.630Z,255
2018-03-28T07:12:50.792Z,275
2018-03-28T07:13:50.150Z,280
2018-03-28T07:14:50.551Z,300
2018-03-28T07:15:50.520Z,315
2018-03-28T07:16:50.090Z,320
2018-03-28T07:17:49.977Z,255
2018-03-28T07:18:50.686Z,180
2018-03-28T07:19:51.266Z,170
2018-03-28T07:20:51.437Z,175
2018-03-28T07:21:49.874Z,170
2018-03-28T07:22:50.143Z,155
2018-03-28T07:23:49.822Z,140
2018-03-28T07:24:50.155Z,130
2018-03-28T07:25:49.527Z,145
2018-03-28T07:26:50.249Z,155
2018-03-28T07:27:50.099Z,160
2018-03-28T07:28:50.341Z,185
2018-03-28T07:29:49.932Z,185
2018-03-28T07:30:49.659Z,170
2018-03-28T07:31:50.132Z,190
2018-03-28T07:32:49.598Z,190
2018-03-28T07:33:49.902Z,195
2018-03-28T07:34:50.046Z,215
2018-03-28T07:35:50.536Z,240
2018-03-28T07:36:49.250Z,265
2018-03-28T07:37:49.975Z,240
2018-03-28T07:38:49.496Z,250
2018-03-28T07:39:49.431Z,235
2018-03-28T07:40:49.903Z,245
2018-03-28T07:41:49.624Z,270
2018-03-28T07:42:49.844Z,280
2018-03-28T07:43:49.825Z,270
2018-03-28T07:44:49.793Z,270
2018-03-28T07:45:49.520Z,250
2018-03-28T07:46:51.221Z,255
2018-03-28T07:47:49.474Z,290
2018-03-28T07:48:49.694Z,280
2018-03-28T07:49:49.179Z,320
2018-03-28T07:50:49.648Z,350
2018-03-28T07:51:49.630Z,410
2018-03-28T07:52:49.346Z,405
2018-03-28T07:53:49.324Z,370
2018-03-28T07:54:49.313Z,360
2018-03-28T07:55:49.172Z,390
2018-03-28T07:56:49.259Z,300
2018-03-28T07:57:49.228Z,300
2018-03-28T07:58:49.455Z,310
2018-03-28T07:59:49.427Z,355
2018-03-28T08:00:49.204Z,345
2018-03-28T08:01:49.391Z,420
2018-03-28T08:02:49.349Z,520
2018-03-28T08:03:49.326Z,555
2018-03-28T08:04:49.054Z,560
2018-03-28T08:05:49.223Z,615
2018-03-28T08:06:49.276Z,590
2018-03-28T08:07:49.231Z,685
2018-03-28T08:08:48.965Z,755
2018-03-28T08:09:48.930Z,760
2018-03-28T08:10:48.923Z,740
2018-03-28T08:11:49.133Z,830
2018-03-28T08:12:48.862Z,865
2018-03-28T08:13:49.083Z,805
2018-03-28T08:14:48.558Z,780
2018-03-28T08:15:48.790Z,705
2018-03-28T08:16:48.521Z,710
2018-03-28T08:17:48.982Z,670
2018-03-28T08:18:48.472Z,665
2018-03-28T08:19:48.699Z,765
2018-03-28T08:20:48.928Z,775
2018-03-28T08:21:47.903Z,710
2018-03-28T08:22:48.624Z,735
2018-03-28T08:23:48.665Z,790
2018-03-28T08:24:48.331Z,755
2018-03-28T08:25:49.632Z,720
2018-03-28T08:26:48.783Z,710
2018-03-28T08:27:48.762Z,635
2018-03-28T08:28:48.927Z,590
2018-03-28T08:29:48.218Z,645
2018-03-28T08:30:48.851Z,660
2018-03-28T08:31:48.672Z,565
2018-03-28T08:32:48.405Z,555
2018-03-28T08:33:48.624Z,600
2018-03-28T08:34:48.110Z,580
2018-03-28T08:35:48.334Z,510
2018-03-28T08:36:48.313Z,495
2018-03-28T08:37:48.041Z,575
2018-03-28T08:38:48.261Z,570
2018-03-28T08:39:48.248Z,490
2018-03-28T08:40:47.974Z,410
2018-03-28T08:41:48.452Z,380
2018-03-28T08:42:48.426Z,395
2018-03-28T08:43:48.402Z,420
2018-03-28T08:44:48.390Z,425
2018-03-28T08:45:47.868Z,380
2018-03-28T08:46:48.112Z,340
2018-03-28T08:47:48.309Z,380
2018-03-28T08:48:47.793Z,395
2018-03-28T08:49:48.020Z,385
2018-03-28T08:50:48.243Z,350
2018-03-28T08:51:47.731Z,365
2018-03-28T08:52:47.947Z,415
2018-03-28T08:53:47.932Z,420
2018-03-28T08:54:47.909Z,375
2018-03-28T08:55:47.630Z,400
2018-03-28T08:56:47.869Z,595
2018-03-28T08:57:48.103Z,725
2018-03-28T08:58:47.852Z,795
2018-03-28T08:59:47.292Z,850
2018-03-28T09:00:47.519Z,800
2018-03-28T09:01:47.244Z,790
2018-03-28T09:02:47.472Z,775
2018-03-28T09:03:47.208Z,745
2018-03-28T09:04:47.932Z,710
2018-03-28T09:05:47.651Z,725
2018-03-28T09:06:47.641Z,790
2018-03-28T09:07:47.855Z,840
2018-03-28T09:08:47.589Z,900
2018-03-28T09:09:47.399Z,920
2018-03-28T09:10:47.786Z,915
2018-03-28T09:11:47.385Z,900
2018-03-28T09:12:47.740Z,885
2018-03-28T09:13:47.476Z,875
2018-03-28T09:14:47.709Z,860
2018-03-28T09:15:47.680Z,860
2018-03-28T09:16:47.260Z,875
2018-03-28T09:17:48.356Z,900
2018-03-28T09:18:47.625Z,935
2018-03-28T09:19:47.096Z,970
2018-03-28T09:20:47.596Z,980
2018-03-28T09:21:47.304Z,995
2018-03-28T09:22:47.532Z,1020
2018-03-28T09:23:47.515Z,1035
2018-03-28T09:24:47.242Z,1055
2018-03-28T09:25:47.464Z,1065
2018-03-28T09:26:47.576Z,1065
2018-03-28T09:27:48.556Z,1040
2018-03-28T09:28:47.168Z,1005
2018-03-28T09:29:47.394Z,965
2018-03-28T09:30:47.298Z,950
2018-03-28T09:31:47.347Z,960
2018-03-28T09:32:47.324Z,975
2018-03-28T09:33:47.065Z,995
2018-03-28T09:34:47.295Z,1010
2018-03-28T09:35:47.262Z,1005
2018-03-28T09:36:47.240Z,975
2018-03-28T09:37:46.983Z,940
2018-03-28T09:38:46.727Z,910
2018-03-28T09:39:46.697Z,955
2018-03-28T09:40:47.171Z,950
2018-03-28T09:41:47.156Z,865
2018-03-28T09:42:46.882Z,785
2018-03-28T09:43:46.882Z,775
2018-03-28T09:44:46.590Z,800
2018-03-28T09:45:46.821Z,830
2018-03-28T09:46:46.805Z,845
2018-03-28T09:47:47.028Z,870
2018-03-28T09:48:46.520Z,850
2018-03-28T09:49:46.733Z,795
2018-03-28T09:50:46.477Z,755
2018-03-28T09:51:46.698Z,730
2018-03-28T09:52:46.676Z,720
2018-03-28T09:53:46.654Z,765
2018-03-28T09:54:46.892Z,800
2018-03-28T09:55:46.619Z,825
2018-03-28T09:56:46.597Z,830
2018-03-28T09:57:47.077Z,820
2018-03-28T09:58:46.309Z,800
2018-03-28T09:59:46.535Z,810
2018-03-28T10:00:46.511Z,815
2018-03-28T10:01:46.745Z,810
2018-03-28T10:02:46.490Z,805
2018-03-28T10:03:46.460Z,810
2018-03-28T10:04:46.439Z,840
2018-03-28T10:05:46.416Z,865
2018-03-28T10:06:46.663Z,890
2018-03-28T10:07:46.627Z,880
2018-03-28T10:08:46.606Z,845
2018-03-28T10:09:46.583Z,825
2018-03-28T10:10:46.591Z,800
2018-03-28T10:11:46.593Z,765
2018-03-28T10:12:46.515Z,775
2018-03-28T10:13:46.504Z,755
2018-03-28T10:14:46.496Z,685
2018-03-28T10:15:46.228Z,565
2018-03-28T10:16:46.201Z,460
2018-03-28T10:17:45.936Z,400
2018-03-28T10:18:46.011Z,405
2018-03-28T10:19:46.501Z,480
2018-03-28T10:20:46.365Z,570
2018-03-28T10:21:46.091Z,615
2018-03-28T10:22:45.825Z,615
2018-03-28T10:23:45.809Z,610
2018-03-28T10:24:46.289Z,615
2018-03-28T10:25:46.258Z,620
2018-03-28T10:26:46.032Z,600
2018-03-28T10:27:46.278Z,555
2018-03-28T10:28:46.195Z,535
2018-03-28T10:29:46.210Z,535
2018-03-28T10:30:45.990Z,520
2018-03-28T10:31:46.133Z,505
2018-03-28T10:32:45.620Z,510
2018-03-28T10:33:46.087Z,535
2018-03-28T10:34:46.068Z,550
2018-03-28T10:35:46.044Z,535
2018-03-28T10:36:46.030Z,505
2018-03-28T10:37:45.778Z,470
2018-03-28T10:38:45.993Z,410
2018-03-28T10:39:45.966Z,365
2018-03-28T10:40:45.948Z,380
2018-03-28T10:41:45.926Z,400
2018-03-28T10:42:45.673Z,390
2018-03-28T10:43:45.386Z,365
2018-03-28T10:44:45.609Z,355
2018-03-28T10:45:45.829Z,355
2018-03-28T10:46:45.568Z,405
2018-03-28T10:47:45.536Z,470
2018-03-28T10:48:45.560Z,540
2018-03-28T10:49:45.755Z,590
2018-03-28T10:50:45.740Z,595
2018-03-28T10:51:45.206Z,590
2018-03-28T10:52:45.684Z,600
2018-03-28T10:53:45.707Z,620
2018-03-28T10:54:45.388Z,605
2018-03-28T10:55:45.623Z,575
2018-03-28T10:56:45.347Z,555
2018-03-28T10:57:45.325Z,520
2018-03-28T10:58:45.559Z,455
2018-03-28T10:59:45.286Z,400
2018-03-28T11:00:45.508Z,385
2018-03-28T11:01:45.485Z,380
2018-03-28T11:02:45.468Z,365
2018-03-28T11:03:45.200Z,385
2018-03-28T11:04:45.177Z,410
2018-03-28T11:05:45.428Z,420
2018-03-28T11:06:45.386Z,410
2018-03-28T11:07:45.415Z,385
2018-03-28T11:08:45.352Z,390
2018-03-28T11:09:45.064Z,430
2018-03-28T11:10:45.046Z,480
2018-03-28T11:11:45.019Z,530
2018-03-28T11:12:45.251Z,585
2018-03-28T11:13:44.974Z,640
2018-03-28T11:14:44.460Z,665
2018-03-28T11:15:45.189Z,610
2018-03-28T11:16:45.164Z,525
2018-03-28T11:17:44.891Z,460
2018-03-28T11:18:44.873Z,400
2018-03-28T11:19:44.610Z,355
2018-03-28T11:20:44.837Z,360
2018-03-28T11:21:44.819Z,375
2018-03-28T11:22:44.810Z,365
2018-03-28T11:23:44.757Z,330
2018-03-28T11:24:44.489Z,300
2018-03-28T11:25:44.742Z,285
2018-03-28T11:26:44.694Z,285
2018-03-28T11:27:44.676Z,280
2018-03-28T11:28:44.658Z,250
2018-03-28T11:29:44.383Z,265
2018-03-28T11:30:44.624Z,310
2018-03-28T11:31:44.841Z,325
2018-03-28T11:32:45.013Z,330
2018-03-28T11:33:44.793Z,335
2018-03-28T11:34:44.764Z,335
2018-03-28T11:35:44.499Z,340
2018-03-28T11:36:44.734Z,365
2018-03-28T11:37:44.206Z,415
2018-03-28T11:38:44.799Z,480
2018-03-28T11:39:44.418Z,540
2018-03-28T11:40:44.633Z,595
2018-03-28T11:41:44.610Z,635
2018-03-28T11:42:44.349Z,640
2018-03-28T11:43:44.072Z,660
2018-03-28T11:44:44.554Z,715
2018-03-28T11:45:44.533Z,720
2018-03-28T11:46:44.004Z,675
2018-03-28T11:47:44.676Z,620
2018-03-28T11:48:44.567Z,545
2018-03-28T11:49:44.436Z,460
2018-03-28T11:50:44.416Z,390
2018-03-28T11:51:43.900Z,360
2018-03-28T11:52:44.376Z,370
2018-03-28T11:53:44.452Z,410
2018-03-28T11:54:43.828Z,440
2018-03-28T11:55:43.816Z,455
2018-03-28T11:56:44.045Z,455
2018-03-28T11:57:44.010Z,470
2018-03-28T11:58:44.793Z,490
2018-03-28T11:59:45.195Z,530
2018-03-28T12:00:44.191Z,565
2018-03-28T12:01:44.176Z,595
2018-03-28T12:02:43.655Z,615
2018-03-28T12:03:44.127Z,630
2018-03-28T12:04:44.275Z,625
2018-03-28T12:05:43.840Z,615
2018-03-28T12:06:43.820Z,590
2018-03-28T12:07:43.550Z,565
2018-03-28T12:08:43.534Z,560
2018-03-28T12:09:43.758Z,565
2018-03-28T12:10:43.478Z,550
2018-03-28T12:11:43.207Z,485
2018-03-28T12:12:43.685Z,405
2018-03-28T12:13:43.673Z,390
2018-03-28T12:14:43.890Z,460
2018-03-28T12:15:43.625Z,535
2018-03-28T12:16:43.847Z,580
2018-03-28T12:17:43.833Z,600
2018-03-28T12:18:43.820Z,585
2018-03-28T12:19:43.863Z,580
2018-03-28T12:20:43.761Z,600
2018-03-28T12:21:43.746Z,595
2018-03-28T12:22:43.473Z,580
2018-03-28T12:23:43.447Z,570
2018-03-28T12:24:43.672Z,560
2018-03-28T12:25:43.657Z,565
2018-03-28T12:26:43.387Z,570
2018-03-28T12:27:43.369Z,565
2018-03-28T12:28:43.347Z,570
2018-03-28T12:29:43.568Z,560
2018-03-28T12:30:43.676Z,545
2018-03-28T12:31:43.546Z,525
2018-03-28T12:32:43.687Z,520
2018-03-28T12:33:43.497Z,525
2018-03-28T12:34:43.227Z,555
2018-03-28T12:35:43.205Z,575
2018-03-28T12:36:43.424Z,580
2018-03-28T12:37:42.909Z,575
2018-03-28T12:38:43.130Z,570
2018-03-28T12:39:43.120Z,560
2018-03-28T12:40:43.350Z,530
2018-03-28T12:41:43.071Z,500
2018-03-28T12:42:43.416Z,490
2018-03-28T12:43:43.345Z,500
2018-03-28T12:44:43.349Z,515
2018-03-28T12:45:43.258Z,515
2018-03-28T12:46:42.745Z,495
2018-03-28T12:47:42.947Z,475
2018-03-28T12:48:42.700Z,460
2018-03-28T12:49:43.216Z,445
2018-03-28T12:50:43.274Z,425
2018-03-28T12:51:42.859Z,410
2018-03-28T12:52:43.128Z,395
2018-03-28T12:53:42.835Z,385
2018-03-28T12:54:43.112Z,370
2018-03-28T12:55:43.695Z,355
2018-03-28T12:56:42.869Z,335
2018-03-28T12:57:42.685Z,305
2018-03-28T12:58:42.745Z,275
2018-03-28T12:59:42.979Z,260
2018-03-28T13:00:42.676Z,255
2018-03-28T13:01:42.645Z,245
2018-03-28T13:02:42.904Z,250
2018-03-28T13:03:42.604Z,245
2018-03-28T13:04:42.841Z,255
2018-03-28T13:05:42.815Z,260
2018-03-28T13:06:42.788Z,255
2018-03-28T13:07:42.263Z,265
2018-03-28T13:08:42.488Z,275
2018-03-28T13:09:42.717Z,280
2018-03-28T13:10:42.690Z,265
2018-03-28T13:11:43.005Z,245
2018-03-28T13:12:42.451Z,210
2018-03-28T13:13:42.384Z,185
2018-03-28T13:14:42.150Z,175
2018-03-28T13:15:42.579Z,180
2018-03-28T13:16:42.662Z,210
2018-03-28T13:17:42.534Z,255
2018-03-28T13:18:42.959Z,280
2018-03-28T13:19:43.570Z,290
2018-03-28T13:20:42.033Z,295
2018-03-28T13:21:41.948Z,295
2018-03-28T13:22:42.180Z,290
2018-03-28T13:23:42.146Z,295
2018-03-28T13:24:42.603Z,305
2018-03-28T13:25:42.977Z,320
2018-03-28T13:26:41.846Z,325
2018-03-28T13:27:41.555Z,335
2018-03-28T13:28:42.032Z,335
2018-03-28T13:29:42.247Z,330
2018-03-28T13:30:41.976Z,325
2018-03-28T13:31:42.385Z,320
2018-03-28T13:32:42.191Z,320
2018-03-28T13:33:41.913Z,315
2018-03-28T13:34:42.135Z,310
2018-03-28T13:35:42.119Z,290
2018-03-28T13:36:41.841Z,275
2018-03-28T13:37:42.094Z,240
2018-03-28T13:38:42.045Z,205
2018-03-28T13:39:42.226Z,185
2018-03-28T13:40:42.003Z,185
2018-03-28T13:41:41.726Z,195
2018-03-28T13:42:41.714Z,185
2018-03-28T13:43:41.459Z,165
2018-03-28T13:44:41.155Z,165
2018-03-28T13:45:41.635Z,175
2018-03-28T13:46:41.870Z,175
2018-03-28T13:47:41.833Z,170
2018-03-28T13:48:41.806Z,170
2018-03-28T13:49:41.336Z,175
2018-03-28T13:50:41.537Z,180
2018-03-28T13:51:41.491Z,170
2018-03-28T13:52:41.224Z,155
2018-03-28T13:53:41.439Z,160
2018-03-28T13:54:41.666Z,140
2018-03-28T13:55:41.397Z,115
2018-03-28T13:56:41.625Z,105
2018-03-28T13:57:41.757Z,125
2018-03-28T13:58:41.578Z,175
2018-03-28T13:59:41.302Z,220
2018-03-28T14:00:41.526Z,195
2018-03-28T14:01:41.256Z,190
2018-03-28T14:02:40.977Z,225
2018-03-28T14:03:41.207Z,270
2018-03-28T14:04:40.932Z,285
2018-03-28T14:05:41.412Z,280
2018-03-28T14:06:41.436Z,275
2018-03-28T14:07:41.358Z,270
2018-03-28T14:08:40.841Z,265
2018-03-28T14:09:41.301Z,265
2018-03-28T14:10:41.287Z,255